Time;durP1;ratioP1;P1;durP2;ratioP2;P2;SDS_P1;SDS_P2;PMS_P1;PMS_P2;Temp;Humidity;BMP_temperature;BMP_pressure;BME280_temperature;BME280_humidity;BME280_pressure;Samples;Min_cycle;Max_cycle;Signal;HPM_P1;HPM_P2
2023/05/06 00:00:30;;;;;;;5.22;3.17;;;;;;;16.76;70.58;100307.03;10350850;28;20049;-63
2023/05/06 00:05:31;;;;;;;3.88;2.88;;;;;;;16.69;70.67;100298.13;10344588;28;20078;-62
2023/05/06 00:10:33;;;;;;;4.68;3.10;;;;;;;16.68;70.53;100299.16;10343495;28;20049;-61
2023/05/06 00:15:35;;;;;;;6.55;2.35;;;;;;;16.56;70.81;100309.88;10349915;28;20164;-62
2023/05/06 00:20:36;;;;;;;5.10;2.67;;;;;;;16.42;71.23;100303.66;10343833;28;20053;-63
2023/05/06 00:25:38;;;;;;;7.50;2.22;;;;;;;16.28;71.38;100298.53;10345361;28;20109;-62
2023/05/06 00:30:39;;;;;;;3.30;2.38;;;;;;;16.32;70.84;100297.88;10343814;28;20070;-62
2023/05/06 00:35:40;;;;;;;6.05;2.55;;;;;;;16.26;70.87;100296.84;10348492;28;20172;-62
2023/05/06 00:40:42;;;;;;;3.95;2.80;;;;;;;16.23;71.03;100291.88;10347816;28;20053;-63
2023/05/06 00:45:43;;;;;;;3.47;2.90;;;;;;;16.13;70.97;100293.34;10345672;28;20104;-62
2023/05/06 00:50:45;;;;;;;4.68;3.15;;;;;;;16.11;71.09;100298.16;10342497;28;20052;-62
2023/05/06 00:55:48;;;;;;;5.32;2.92;;;;;;;16.08;70.97;100290.47;10347105;28;20038;-61
2023/05/06 01:00:51;;;;;;;6.78;2.47;;;;;;;16.03;71.13;100294.66;10347265;28;20078;-60
2023/05/06 01:06:14;;;;;;;3.15;2.53;;;;;;;15.95;71.11;100294.88;10343623;28;20100;-59
2023/05/06 01:11:23;;;;;;;5.03;2.67;;;;;;;15.85;71.24;100287.16;10344903;28;20041;-62
2023/05/06 01:16:28;;;;;;;3.70;2.45;;;;;;;15.84;71.06;100282.81;10345558;28;20054;-61
2023/05/06 01:21:33;;;;;;;5.22;2.35;;;;;;;15.72;71.32;100289.03;10346929;28;20046;-63
2023/05/06 01:26:35;;;;;;;4.20;2.60;;;;;;;15.64;71.24;100280.13;10347250;28;20578;-62
2023/05/06 01:31:44;;;;;;;3.50;2.20;;;;;;;15.57;71.06;100281.16;10346814;28;20108;-61
2023/05/06 01:37:16;;;;;;;3.78;2.10;;;;;;;15.41;71.36;100288.69;10341262;28;20038;-62
2023/05/06 01:42:20;;;;;;;2.28;1.83;;;;;;;15.38;71.22;100290.97;10343617;28;20070;-62
2023/05/06 01:47:23;;;;;;;2.35;2.13;;;;;;;15.27;71.39;100289.72;10342390;28;20133;-63
2023/05/06 01:52:25;;;;;;;3.88;3.45;;;;;;;15.18;71.55;100296.38;10347272;28;20117;-63
2023/05/06 01:57:27;;;;;;;3.50;3.20;;;;;;;15.13;71.57;100297.00;10348969;28;20069;-62
2023/05/06 02:02:29;;;;;;;9.45;4.05;;;;;;;15.05;71.43;100302.63;10341386;28;20200;-62
2023/05/06 02:07:31;;;;;;;5.10;3.53;;;;;;;14.99;71.40;100301.59;10342583;28;20074;-63
2023/05/06 02:12:33;;;;;;;4.82;3.83;;;;;;;14.90;71.61;100312.81;10341105;28;20074;-62
2023/05/06 02:17:36;;;;;;;5.45;3.38;;;;;;;14.82;71.57;100311.13;10340166;28;20046;-63
2023/05/06 02:22:37;;;;;;;8.05;4.00;;;;;;;14.79;71.76;100322.34;10343911;28;20042;-62
2023/05/06 02:27:38;;;;;;;4.88;3.45;;;;;;;14.74;71.51;100320.25;10339610;28;20081;-63
2023/05/06 02:32:40;;;;;;;5.43;3.63;;;;;;;14.67;71.83;100322.09;10344949;28;20507;-62
2023/05/06 02:37:41;;;;;;;5.47;3.63;;;;;;;14.62;71.71;100330.84;10343206;28;20501;-62
2023/05/06 02:42:43;;;;;;;4.30;3.28;;;;;;;14.58;71.70;100326.88;10347429;28;20061;-64
2023/05/06 02:47:44;;;;;;;7.13;2.80;;;;;;;14.51;71.82;100331.38;10341694;28;20631;-63
2023/05/06 02:52:46;;;;;;;7.38;3.15;;;;;;;14.42;71.76;100329.91;10341750;28;20061;-62
2023/05/06 02:57:47;;;;;;;4.68;3.50;;;;;;;14.35;72.00;100334.44;10345520;28;20101;-63
2023/05/06 03:02:49;;;;;;;2.88;2.30;;;;;;;14.31;71.77;100344.00;10344391;28;20074;-62
2023/05/06 03:07:50;;;;;;;3.67;2.17;;;;;;;14.23;72.00;100342.28;10349362;28;20053;-62
2023/05/06 03:12:51;;;;;;;4.03;2.10;;;;;;;14.16;71.96;100339.56;10352112;28;20535;-62
2023/05/06 03:17:53;;;;;;;4.05;2.63;;;;;;;14.02;71.65;100344.06;10348506;28;20053;-64
2023/05/06 03:22:55;;;;;;;3.70;2.40;;;;;;;13.97;72.05;100342.97;10348947;28;20053;-62
2023/05/06 03:27:56;;;;;;;7.18;3.15;;;;;;;13.90;71.96;100337.53;10350420;28;20050;-62
2023/05/06 03:33:00;;;;;;;3.58;2.88;;;;;;;13.91;71.64;100346.47;10347582;28;20148;-62
2023/05/06 03:38:02;;;;;;;4.63;2.85;;;;;;;13.84;71.64;100339.16;10349103;28;20077;-63
2023/05/06 03:43:03;;;;;;;3.88;3.22;;;;;;;13.77;71.73;100335.56;10347615;28;20521;-62
2023/05/06 03:48:05;;;;;;;6.53;3.88;;;;;;;13.76;71.99;100336.59;10350805;28;20247;-62
2023/05/06 03:53:07;;;;;;;5.60;3.00;;;;;;;13.71;72.10;100349.88;10350238;28;20105;-69
2023/05/06 03:58:08;;;;;;;4.88;2.85;;;;;;;13.71;71.88;100355.28;10346666;28;20117;-68
2023/05/06 04:03:10;;;;;;;3.92;2.88;;;;;;;13.76;71.57;100349.28;10343678;28;20094;-68
2023/05/06 04:08:11;;;;;;;6.50;3.67;;;;;;;13.76;71.73;100341.16;10348844;28;20060;-68
2023/05/06 04:13:12;;;;;;;5.93;3.17;;;;;;;13.72;71.65;100356.09;10351820;28;20105;-67
2023/05/06 04:18:18;;;;;;;3.45;2.38;;;;;;;13.65;71.68;100354.19;10351094;28;20149;-68
2023/05/06 04:23:19;;;;;;;4.75;3.08;;;;;;;13.61;71.57;100355.63;10341979;28;20113;-68
2023/05/06 04:28:21;;;;;;;4.60;2.50;;;;;;;13.58;72.09;100357.88;10348523;28;20130;-67
2023/05/06 04:33:23;;;;;;;7.82;3.67;;;;;;;13.65;72.10;100354.19;10350182;28;20084;-68
2023/05/06 04:38:29;;;;;;;4.35;3.15;;;;;;;13.68;71.95;100361.91;10346927;28;20053;-68
2023/05/06 04:43:31;;;;;;;6.65;3.88;;;;;;;13.76;71.54;100363.63;10349296;28;20445;-68
2023/05/06 04:48:33;;;;;;;4.28;3.38;;;;;;;13.82;71.84;100367.41;10345056;28;20105;-67
2023/05/06 04:53:34;;;;;;;3.72;2.80;;;;;;;13.87;71.78;100373.06;10343432;28;20165;-67
2023/05/06 04:58:36;;;;;;;6.07;2.20;;;;;;;13.93;71.38;100372.28;10356225;28;20629;-67
2023/05/06 05:03:37;;;;;;;3.58;2.45;;;;;;;13.98;71.78;100372.53;10338767;28;20493;-67
2023/05/06 05:08:38;;;;;;;3.60;2.63;;;;;;;14.09;71.42;100380.06;10345768;28;20050;-68
2023/05/06 05:13:40;;;;;;;8.70;2.40;;;;;;;14.21;71.38;100385.75;10348637;28;20077;-67
2023/05/06 05:18:41;;;;;;;3.95;2.58;;;;;;;14.34;71.27;100379.59;10344105;28;20449;-67
2023/05/06 05:23:43;;;;;;;4.53;2.80;;;;;;;14.48;71.52;100386.72;10343092;28;20141;-67
2023/05/06 05:28:44;;;;;;;12.05;4.28;;;;;;;14.63;71.40;100394.75;10343185;28;20137;-67
2023/05/06 05:33:45;;;;;;;5.82;3.10;;;;;;;14.79;71.49;100387.28;10342299;28;20101;-66
2023/05/06 05:38:47;;;;;;;4.65;3.10;;;;;;;14.95;71.33;100388.81;10337900;28;20137;-67
2023/05/06 05:43:49;;;;;;;4.13;2.67;;;;;;;15.10;71.26;100394.88;10344939;28;20132;-67
2023/05/06 05:48:50;;;;;;;3.75;2.75;;;;;;;15.28;71.31;100386.16;10333158;28;20050;-67
2023/05/06 05:53:52;;;;;;;5.72;2.75;;;;;;;15.43;70.98;100389.53;10341240;28;20078;-67
2023/05/06 05:58:53;;;;;;;5.45;3.38;;;;;;;15.61;71.03;100397.03;10343477;28;20112;-67
2023/05/06 06:03:55;;;;;;;5.82;3.22;;;;;;;15.73;70.87;100401.88;10338371;28;20129;-67
2023/05/06 06:08:57;;;;;;;5.43;2.75;;;;;;;15.86;70.65;100399.16;10336801;28;20053;-67
2023/05/06 06:13:59;;;;;;;5.05;2.58;;;;;;;15.98;70.55;100402.91;10346843;28;20468;-67
2023/05/06 06:19:00;;;;;;;5.35;2.08;;;;;;;16.12;70.33;100411.03;10339768;28;20061;-67
2023/05/06 06:24:02;;;;;;;4.13;2.65;;;;;;;16.25;70.05;100410.97;10339534;28;20135;-66
2023/05/06 06:29:03;;;;;;;4.47;2.30;;;;;;;16.41;70.02;100415.13;10341653;28;20141;-67
2023/05/06 06:34:05;;;;;;;3.30;2.35;;;;;;;16.58;69.01;100413.63;10349808;28;20069;-67
2023/05/06 06:39:07;;;;;;;4.35;2.75;;;;;;;16.63;69.16;100424.66;10352068;28;20058;-67
2023/05/06 06:44:08;;;;;;;4.63;2.65;;;;;;;16.84;68.70;100414.59;10348747;28;20076;-68
2023/05/06 06:49:10;;;;;;;5.65;2.85;;;;;;;16.98;68.49;100418.06;10346109;28;20080;-66
2023/05/06 06:54:11;;;;;;;4.70;3.00;;;;;;;17.20;67.88;100413.16;10349911;28;20109;-66
2023/05/06 06:59:12;;;;;;;4.25;3.85;;;;;;;17.21;67.87;100421.09;10345472;28;20053;-66
2023/05/06 07:04:14;;;;;;;5.50;3.17;;;;;;;17.38;67.36;100417.88;10347805;28;20070;-67
2023/05/06 07:09:15;;;;;;;2.90;2.42;;;;;;;17.50;67.35;100413.38;10346740;28;20140;-67
2023/05/06 07:14:17;;;;;;;3.92;2.40;;;;;;;17.70;66.68;100426.00;10347844;28;20669;-66
2023/05/06 07:19:18;;;;;;;6.03;2.65;;;;;;;17.95;66.61;100417.84;10344536;28;20082;-67
2023/05/06 07:24:20;;;;;;;4.40;1.98;;;;;;;18.18;65.96;100419.94;10349658;28;20042;-67
2023/05/06 07:29:21;;;;;;;3.95;2.22;;;;;;;18.42;65.53;100421.81;10348398;28;20097;-66
2023/05/06 07:34:22;;;;;;;2.28;2.08;;;;;;;18.61;64.42;100422.63;10347845;28;20134;-66
2023/05/06 07:39:24;;;;;;;5.40;2.65;;;;;;;18.75;64.12;100427.91;10342706;28;20050;-66
2023/05/06 07:44:25;;;;;;;4.32;2.42;;;;;;;18.91;63.66;100435.50;10343878;28;20108;-69
2023/05/06 07:49:29;;;;;;;5.00;2.33;;;;;;;19.05;63.41;100438.03;10346173;28;20081;-68
2023/05/06 07:54:30;;;;;;;6.45;2.55;;;;;;;19.09;62.69;100436.53;10351353;28;20077;-67
2023/05/06 07:59:32;;;;;;;6.30;2.63;;;;;;;19.24;62.43;100439.66;10346881;28;20074;-67
2023/05/06 08:04:33;;;;;;;3.97;1.80;;;;;;;19.40;61.67;100438.19;10347456;28;20077;-67
2023/05/06 08:09:35;;;;;;;1.30;1.02;;;;;;;19.48;61.28;100437.84;10347048;28;20041;-67
2023/05/06 08:14:36;;;;;;;3.00;1.02;;;;;;;19.77;60.26;100432.63;10351177;28;20050;-67
2023/05/06 08:19:38;;;;;;;3.65;1.30;;;;;;;20.03;59.26;100435.97;10348090;28;20073;-66
2023/05/06 08:24:39;;;;;;;2.17;1.08;;;;;;;20.29;58.62;100442.84;10344811;28;20054;-73
2023/05/06 08:29:40;;;;;;;1.05;0.70;;;;;;;20.56;57.52;100441.28;10345576;28;20058;-71
2023/05/06 08:34:42;;;;;;;3.00;0.80;;;;;;;20.61;57.10;100435.13;10347468;28;20088;-76
2023/05/06 08:39:44;;;;;;;2.35;1.00;;;;;;;20.67;56.32;100447.81;10348142;28;20128;-73
2023/05/06 08:44:46;;;;;;;1.33;0.75;;;;;;;20.94;55.72;100444.56;10347504;28;20046;-67
2023/05/06 08:49:48;;;;;;;3.22;0.75;;;;;;;21.26;55.14;100449.53;10346052;28;20062;-67
2023/05/06 08:54:53;;;;;;;2.13;0.70;;;;;;;21.55;54.12;100436.72;10343764;28;20148;-66
2023/05/06 08:59:55;;;;;;;1.60;0.90;;;;;;;21.55;53.59;100443.00;10348499;28;20145;-67
2023/05/06 09:04:58;;;;;;;2.00;0.90;;;;;;;21.76;53.48;100437.88;10360296;28;20093;-67
2023/05/06 09:10:04;;;;;;;2.85;0.98;;;;;;;22.08;52.38;100435.41;10348456;28;20075;-66
2023/05/06 09:15:08;;;;;;;1.70;0.90;;;;;;;22.42;51.98;100440.03;10347691;28;20068;-66
2023/05/06 09:20:11;;;;;;;4.72;0.80;;;;;;;22.67;51.30;100437.63;10342546;28;20155;-66
2023/05/06 09:25:13;;;;;;;2.85;1.35;;;;;;;22.95;50.29;100439.34;10337539;28;20728;-65
2023/05/06 09:30:14;;;;;;;2.88;0.50;;;;;;;23.00;50.13;100435.81;10342955;28;20069;-67
2023/05/06 09:35:16;;;;;;;1.73;0.60;;;;;;;23.03;49.80;100431.78;10345887;28;20049;-66
2023/05/06 09:40:17;;;;;;;1.70;0.50;;;;;;;23.15;49.25;100433.28;10344222;28;20116;-64
2023/05/06 09:45:20;;;;;;;2.97;0.70;;;;;;;23.64;48.47;100426.09;10343831;28;20718;-66
2023/05/06 09:50:22;;;;;;;4.00;0.70;;;;;;;23.66;47.23;100423.91;10349520;28;20104;-66
2023/05/06 09:55:25;;;;;;;2.25;0.60;;;;;;;23.91;46.57;100418.66;10346290;28;20177;-66
2023/05/06 10:00:29;;;;;;;1.77;0.50;;;;;;;24.23;45.11;100409.53;10347890;28;20065;-65
2023/05/06 10:05:32;;;;;;;0.70;0.40;;;;;;;24.20;44.83;100403.75;10341736;28;20128;-67
2023/05/06 10:10:34;;;;;;;1.30;1.05;;;;;;;24.00;44.71;100412.69;10349221;28;20161;-66
2023/05/06 10:15:37;;;;;;;1.77;0.50;;;;;;;24.11;44.57;100403.38;10342523;28;20516;-66
2023/05/06 10:20:41;;;;;;;3.85;0.55;;;;;;;24.35;43.89;100401.91;10342690;28;20053;-66
2023/05/06 10:25:44;;;;;;;3.38;0.93;;;;;;;24.45;43.82;100392.88;10342164;28;20058;-66
2023/05/06 10:30:47;;;;;;;3.50;0.55;;;;;;;24.94;42.81;100397.22;10342736;28;20109;-66
2023/05/06 10:35:58;;;;;;;2.53;0.60;;;;;;;25.16;42.22;100383.25;10339157;28;20089;-63
2023/05/06 10:41:00;;;;;;;1.45;0.40;;;;;;;24.70;42.17;100389.47;10344892;28;20084;-72
2023/05/06 10:46:07;;;;;;;1.55;0.30;;;;;;;24.61;42.31;100380.06;10355383;28;20476;-75
2023/05/06 10:51:12;;;;;;;1.92;0.50;;;;;;;24.62;41.66;100376.22;10366110;28;20088;-73
2023/05/06 10:56:13;;;;;;;3.60;0.55;;;;;;;24.65;41.31;100366.63;10348553;28;20085;-72
2023/05/06 11:01:15;;;;;;;1.30;0.40;;;;;;;24.46;41.77;100369.78;10347092;28;20065;-64
2023/05/06 11:06:47;;;;;;;1.65;0.40;;;;;;;24.25;41.42;100363.41;10343092;28;20111;-65
2023/05/06 11:12:00;;;;;;;0.60;0.30;;;;;;;23.92;41.34;100364.56;10338053;28;20081;-63
2023/05/06 11:17:27;;;;;;;4.65;0.45;;;;;;;24.31;41.18;100356.81;10347254;28;20149;-63
2023/05/06 11:22:39;;;;;;;;;;;;;;;24.62;41.93;100351.47;10347632;28;20108;-64
2023/05/06 11:27:40;;;;;;;1.65;0.30;;;;;;;24.89;39.94;100351.28;10347551;28;19979;-64
2023/05/06 11:32:42;;;;;;;0.55;0.30;;;;;;;25.35;40.14;100361.56;10343655;28;20139;-62
2023/05/06 11:37:44;;;;;;;1.95;0.30;;;;;;;25.97;39.49;100356.88;10345398;28;20111;-63
2023/05/06 11:42:45;;;;;;;1.65;0.30;;;;;;;27.59;37.14;100351.94;10345978;28;20501;-63
2023/05/06 11:47:46;;;;;;;1.75;0.63;;;;;;;28.26;34.47;100344.63;10347161;28;20136;-64
2023/05/06 11:52:48;;;;;;;1.95;0.40;;;;;;;28.40;33.81;100346.69;10346111;28;20248;-63
2023/05/06 11:57:52;;;;;;;2.83;0.95;;;;;;;28.84;32.56;100331.72;10348154;28;20512;-63
2023/05/06 12:02:55;;;;;;;1.25;0.30;;;;;;;30.19;30.58;100334.72;10350288;28;20255;-63
2023/05/06 12:07:56;;;;;;;1.02;0.30;;;;;;;29.18;32.27;100336.22;10346907;28;20061;-64
2023/05/06 12:12:58;;;;;;;1.00;0.20;;;;;;;27.95;33.26;100337.78;10348215;28;20062;-62
2023/05/06 12:18:00;;;;;;;1.95;0.40;;;;;;;27.62;33.50;100343.03;10345964;28;20092;-62
2023/05/06 12:23:12;;;;;;;2.92;0.20;;;;;;;27.45;33.68;100336.03;10348916;28;20556;-63
2023/05/06 12:28:18;;;;;;;2.30;0.30;;;;;;;27.03;34.18;100337.41;10337979;28;20043;-63
2023/05/06 12:33:19;;;;;;;2.90;0.20;;;;;;;26.63;34.26;100344.00;10352024;28;20409;-62
2023/05/06 12:38:21;;;;;;;2.58;0.30;;;;;;;27.57;33.40;100337.56;10349175;28;20050;-63
2023/05/06 12:43:31;;;;;;;1.60;0.60;;;;;;;28.60;32.01;100326.25;10343855;28;20084;-63
2023/05/06 12:48:33;;;;;;;0.70;0.20;;;;;;;29.59;31.09;100338.31;10342107;28;20125;-63
2023/05/06 12:53:35;;;;;;;1.48;0.30;;;;;;;29.23;30.55;100334.19;10359083;28;20119;-63
2023/05/06 12:58:37;;;;;;;0.77;0.20;;;;;;;29.98;29.45;100318.50;10343346;28;20046;-63
2023/05/06 13:03:39;;;;;;;2.75;0.28;;;;;;;30.35;29.72;100327.78;10345286;28;20496;-64
2023/05/06 13:08:41;;;;;;;0.63;0.20;;;;;;;30.19;28.52;100313.34;10340339;28;20750;-63
2023/05/06 13:13:42;;;;;;;2.58;0.20;;;;;;;30.42;29.16;100314.28;10342065;28;20164;-65
2023/05/06 13:18:44;;;;;;;1.42;0.17;;;;;;;31.03;27.80;100314.88;10343704;28;20061;-64
2023/05/06 13:23:46;;;;;;;1.25;0.20;;;;;;;30.59;28.38;100313.66;10345789;28;20054;-63
2023/05/06 13:28:48;;;;;;;0.43;0.10;;;;;;;30.98;27.36;100311.41;10346003;28;20070;-63
2023/05/06 13:33:49;;;;;;;1.90;0.25;;;;;;;31.09;27.09;100298.91;10343384;28;20493;-64
2023/05/06 13:38:50;;;;;;;0.85;0.20;;;;;;;30.85;27.39;100296.41;10341813;28;20054;-64
2023/05/06 13:43:52;;;;;;;0.63;0.20;;;;;;;30.74;28.04;100290.28;10345351;28;20448;-64
2023/05/06 13:48:53;;;;;;;1.25;0.30;;;;;;;30.45;28.29;100287.88;10341820;28;20078;-62
2023/05/06 13:53:55;;;;;;;2.15;0.60;;;;;;;30.00;28.84;100291.28;10345915;28;20090;-63
2023/05/06 13:58:56;;;;;;;0.68;0.20;;;;;;;29.87;29.17;100269.91;10345884;28;20073;-64
2023/05/06 14:03:57;;;;;;;0.45;0.20;;;;;;;30.17;27.68;100264.88;10347066;28;20043;-63
2023/05/06 14:08:59;;;;;;;1.02;0.20;;;;;;;30.82;26.77;100263.72;10341255;28;20109;-65
2023/05/06 14:14:01;;;;;;;2.13;0.30;;;;;;;31.51;26.59;100262.59;10343808;28;20046;-65
2023/05/06 14:19:03;;;;;;;1.60;0.20;;;;;;;32.03;26.08;100251.72;10345264;28;20084;-65
2023/05/06 14:24:05;;;;;;;2.25;0.40;;;;;;;32.58;25.36;100240.06;10346340;28;20084;-65
2023/05/06 14:29:08;;;;;;;3.50;0.40;;;;;;;32.40;25.51;100238.38;10343028;28;20082;-64
2023/05/06 14:34:10;;;;;;;1.65;0.20;;;;;;;31.78;26.11;100239.34;10342123;28;20082;-64
2023/05/06 14:39:11;;;;;;;0.57;0.30;;;;;;;31.67;25.57;100233.25;10347568;28;20081;-64
2023/05/06 14:44:14;;;;;;;0.32;0.10;;;;;;;31.69;26.34;100232.94;10342566;28;20105;-64
2023/05/06 14:49:15;;;;;;;0.77;0.20;;;;;;;31.67;26.02;100233.25;10353078;28;20054;-62
2023/05/06 14:54:16;;;;;;;0.60;0.40;;;;;;;31.90;25.83;100227.63;10348055;28;20184;-63
2023/05/06 14:59:18;;;;;;;1.17;0.30;;;;;;;31.61;25.73;100228.97;10355212;28;20073;-64
2023/05/06 15:04:19;;;;;;;0.88;0.30;;;;;;;30.27;27.05;100236.91;10351499;28;20133;-65
2023/05/06 15:09:21;;;;;;;1.05;0.30;;;;;;;29.62;27.58;100232.41;10347610;28;20084;-65
2023/05/06 15:14:22;;;;;;;0.75;0.25;;;;;;;29.06;28.10;100228.69;10351632;28;20069;-61
2023/05/06 15:19:23;;;;;;;0.40;0.20;;;;;;;28.35;29.06;100230.59;10345934;28;20448;-62
2023/05/06 15:24:25;;;;;;;0.52;0.20;;;;;;;27.83;29.46;100224.88;10350926;28;20075;-65
2023/05/06 15:29:27;;;;;;;1.00;0.30;;;;;;;27.39;30.33;100234.19;10350362;28;20856;-63
2023/05/06 15:34:28;;;;;;;2.05;0.20;;;;;;;26.79;31.30;100243.50;10348183;28;20501;-61
2023/05/06 15:39:35;;;;;;;3.83;0.20;;;;;;;26.33;31.68;100240.19;10346475;28;20058;-62
2023/05/06 15:44:37;;;;;;;1.45;0.40;;;;;;;25.85;32.93;100243.38;10344454;28;20689;-63
2023/05/06 15:49:38;;;;;;;0.50;0.20;;;;;;;25.36;33.82;100250.38;10346232;28;20116;-62
2023/05/06 15:54:42;;;;;;;1.00;0.20;;;;;;;24.93;34.78;100249.81;10346311;28;20121;-63
2023/05/06 15:59:50;;;;;;;0.50;0.30;;;;;;;24.85;35.20;100253.13;10342020;28;20054;-64
2023/05/06 16:04:51;;;;;;;1.75;0.30;;;;;;;24.69;35.32;100255.84;10343313;28;20503;-63
2023/05/06 16:09:53;;;;;;;2.90;0.30;;;;;;;24.74;35.74;100249.50;10348197;28;20097;-62
2023/05/06 16:14:54;;;;;;;0.70;0.20;;;;;;;24.65;35.60;100249.22;10343973;28;20078;-62
2023/05/06 16:19:56;;;;;;;3.20;0.30;;;;;;;24.61;36.17;100248.13;10345281;28;20104;-65
2023/05/06 16:24:57;;;;;;;0.65;0.30;;;;;;;24.49;36.46;100248.34;10346275;28;20100;-62
2023/05/06 16:29:59;;;;;;;2.83;0.25;;;;;;;24.44;36.74;100236.50;10344222;28;20160;-64
2023/05/06 16:35:00;;;;;;;2.80;0.40;;;;;;;24.41;36.85;100235.13;10344727;28;20058;-62
2023/05/06 16:40:03;;;;;;;2.25;0.40;;;;;;;24.23;37.34;100228.22;10347118;28;20061;-63
2023/05/06 16:45:05;;;;;;;0.85;0.50;;;;;;;24.14;37.61;100224.34;10342474;28;20146;-62
2023/05/06 16:50:07;;;;;;;1.48;0.73;;;;;;;23.80;38.65;100224.75;10344694;28;20503;-62
2023/05/06 16:55:09;;;;;;;0.70;0.30;;;;;;;23.54;38.90;100226.50;10342384;28;20058;-65
2023/05/06 17:00:11;;;;;;;1.20;0.30;;;;;;;23.38;39.75;100219.25;10344096;28;20053;-64
2023/05/06 17:05:14;;;;;;;1.17;0.30;;;;;;;23.42;39.67;100215.72;10338801;28;20057;-66
2023/05/06 17:10:15;;;;;;;1.25;0.57;;;;;;;23.36;39.84;100217.63;10340186;28;20128;-64
2023/05/06 17:15:17;;;;;;;2.97;0.70;;;;;;;23.40;39.91;100215.16;10345611;28;20588;-62
2023/05/06 17:20:18;;;;;;;3.78;1.13;;;;;;;23.38;39.99;100208.28;10346792;28;20050;-64
2023/05/06 17:25:20;;;;;;;1.25;0.50;;;;;;;23.34;40.01;100211.56;10343319;28;20169;-64
2023/05/06 17:30:21;;;;;;;8.20;4.68;;;;;;;23.20;40.45;100215.00;10339202;28;20104;-63
2023/05/06 17:35:23;;;;;;;3.20;0.90;;;;;;;23.05;41.06;100223.97;10341584;28;20121;-65
2023/05/06 17:40:24;;;;;;;2.05;0.63;;;;;;;22.97;41.19;100214.28;10340208;28;20100;-66
2023/05/06 17:45:27;;;;;;;2.78;0.55;;;;;;;22.82;41.96;100222.38;10346021;28;20132;-62
2023/05/06 17:50:28;;;;;;;1.83;0.50;;;;;;;22.70;42.26;100217.03;10341766;28;20053;-63
2023/05/06 17:55:30;;;;;;;3.13;0.55;;;;;;;22.54;42.70;100225.13;10342131;28;20052;-64
2023/05/06 18:00:32;;;;;;;1.13;0.50;;;;;;;22.43;43.06;100222.53;10340567;28;20046;-64
2023/05/06 18:05:33;;;;;;;1.02;0.60;;;;;;;22.37;42.84;100222.50;10341283;28;20140;-63
2023/05/06 18:10:35;;;;;;;1.92;0.50;;;;;;;22.29;43.45;100228.41;10335127;28;20498;-63
2023/05/06 18:15:36;;;;;;;1.25;0.40;;;;;;;22.31;43.23;100233.63;10345236;28;20108;-61
2023/05/06 18:20:38;;;;;;;1.67;0.82;;;;;;;22.34;43.66;100233.13;10344883;28;20062;-62
2023/05/06 18:25:40;;;;;;;1.50;0.70;;;;;;;22.34;43.93;100242.16;10344044;28;20064;-62
2023/05/06 18:30:41;;;;;;;1.40;0.60;;;;;;;22.36;44.06;100241.91;10346982;28;20118;-61
2023/05/06 18:35:42;;;;;;;1.70;1.00;;;;;;;22.27;43.99;100241.53;10347271;28;20132;-61
2023/05/06 18:40:45;;;;;;;2.05;0.50;;;;;;;22.23;44.19;100232.13;10350308;28;20124;-61
2023/05/06 18:45:47;;;;;;;7.25;2.60;;;;;;;22.17;44.85;100239.47;10346925;28;20086;-62
2023/05/06 18:50:49;;;;;;;3.42;2.20;;;;;;;22.22;45.61;100240.63;10340787;28;20141;-61
2023/05/06 18:55:51;;;;;;;8.70;5.80;;;;;;;22.21;46.43;100249.91;10348781;28;20073;-62
2023/05/06 19:00:54;;;;;;;8.52;3.45;;;;;;;21.90;46.81;100257.72;10353985;28;20050;-61
2023/05/06 19:05:57;;;;;;;3.22;0.70;;;;;;;21.63;46.80;100257.66;10355408;28;20436;-68
2023/05/06 19:11:00;;;;;;;2.58;1.10;;;;;;;21.44;47.18;100263.38;10357026;28;20060;-59
2023/05/06 19:16:01;;;;;;;1.88;0.80;;;;;;;21.43;46.92;100267.22;10357715;28;20041;-59
2023/05/06 19:21:03;;;;;;;1.38;0.80;;;;;;;21.33;47.18;100270.56;10353494;28;20573;-59
2023/05/06 19:26:04;;;;;;;2.20;1.13;;;;;;;21.26;47.38;100271.81;10350193;28;20279;-60
2023/05/06 19:31:09;;;;;;;9.25;1.70;;;;;;;21.16;47.27;100267.00;10353445;28;20042;-61
2023/05/06 19:36:10;;;;;;;2.15;0.40;;;;;;;21.11;47.77;100277.84;10354843;28;20069;-59
2023/05/06 19:41:12;;;;;;;1.42;0.30;;;;;;;21.11;48.01;100277.84;10348068;28;20054;-60
2023/05/06 19:46:14;;;;;;;0.75;0.35;;;;;;;21.13;48.10;100281.16;10347260;28;20116;-61
2023/05/06 19:51:16;;;;;;;2.17;0.40;;;;;;;21.03;49.03;100289.19;10356342;28;20046;-60
2023/05/06 19:56:18;;;;;;;1.00;0.30;;;;;;;20.90;49.32;100288.44;10354952;28;20081;-59
2023/05/06 20:01:22;;;;;;;1.05;0.30;;;;;;;20.77;49.61;100300.50;10352515;28;20084;-60
2023/05/06 20:06:23;;;;;;;1.33;0.40;;;;;;;20.71;50.30;100287.00;10345822;28;20054;-59
2023/05/06 20:11:25;;;;;;;1.83;0.40;;;;;;;20.60;50.65;100297.72;10346003;28;20054;-61
2023/05/06 20:16:26;;;;;;;0.88;0.35;;;;;;;20.48;50.68;100302.38;10353407;28;20042;-60
2023/05/06 20:21:28;;;;;;;2.67;0.40;;;;;;;20.28;51.53;100297.34;10349950;28;20053;-61
2023/05/06 20:26:29;;;;;;;2.22;0.40;;;;;;;20.14;52.08;100306.84;10349579;28;20042;-61
2023/05/06 20:31:31;;;;;;;2.45;0.30;;;;;;;19.91;52.29;100303.09;10343764;28;20088;-61
2023/05/06 20:36:33;;;;;;;2.25;0.30;;;;;;;19.79;52.81;100303.09;10344080;28;20056;-59
2023/05/06 20:41:35;;;;;;;1.48;0.30;;;;;;;19.67;53.09;100295.94;10347336;28;20070;-59
2023/05/06 20:46:36;;;;;;;1.35;0.40;;;;;;;19.56;53.25;100303.06;10346350;28;20528;-60
2023/05/06 20:51:37;;;;;;;0.50;0.30;;;;;;;19.45;53.43;100296.56;10344333;28;20090;-60
2023/05/06 20:56:39;;;;;;;0.90;0.30;;;;;;;19.35;53.67;100294.41;10346268;28;20054;-62
2023/05/06 21:01:40;;;;;;;0.63;0.30;;;;;;;19.37;53.67;100292.28;10346248;28;20054;-60
2023/05/06 21:06:42;;;;;;;1.52;0.30;;;;;;;19.42;53.68;100288.84;10351888;28;20500;-60
2023/05/06 21:11:43;;;;;;;1.45;0.30;;;;;;;19.41;53.69;100289.88;10352382;28;20046;-59
2023/05/06 21:16:45;;;;;;;0.80;0.40;;;;;;;19.41;53.67;100293.47;10347586;28;20082;-62
2023/05/06 21:21:46;;;;;;;1.48;0.93;;;;;;;19.51;53.51;100305.66;10345642;28;20421;-61
2023/05/06 21:26:47;;;;;;;0.57;0.32;;;;;;;19.59;53.21;100308.88;10345606;28;20133;-60
2023/05/06 21:31:49;;;;;;;3.65;0.40;;;;;;;19.54;53.22;100308.75;10345948;28;20080;-60
2023/05/06 21:36:50;;;;;;;1.05;0.60;;;;;;;19.51;53.39;100305.66;10345359;28;20096;-58
2023/05/06 21:41:51;;;;;;;1.88;0.50;;;;;;;19.53;53.39;100308.97;10349058;28;20185;-60
2023/05/06 21:46:53;;;;;;;1.38;0.80;;;;;;;19.49;53.39;100302.34;10344538;28;20069;-61
2023/05/06 21:51:55;;;;;;;1.77;0.70;;;;;;;19.45;53.46;100302.00;10339068;28;20086;-59
2023/05/06 21:56:56;;;;;;;4.38;1.10;;;;;;;19.50;53.34;100291.22;10345154;28;20098;-61
2023/05/06 22:01:57;;;;;;;3.88;1.00;;;;;;;19.54;53.17;100292.41;10346767;28;20065;-60
2023/05/06 22:06:59;;;;;;;1.38;0.63;;;;;;;19.61;53.12;100298.56;10349233;28;20050;-60
2023/05/06 22:12:05;;;;;;;1.23;0.50;;;;;;;19.66;53.13;100294.31;10347024;28;20053;-60
2023/05/06 22:17:06;;;;;;;0.90;0.60;;;;;;;19.69;53.08;100289.22;10342314;28;20081;-60
2023/05/06 22:22:08;;;;;;;2.55;0.50;;;;;;;19.70;53.07;100281.84;10343543;28;20054;-61
2023/05/06 22:27:10;;;;;;;1.35;0.60;;;;;;;19.71;53.06;100284.38;10341727;28;20073;-61
2023/05/06 22:32:11;;;;;;;2.72;0.45;;;;;;;19.66;53.13;100281.50;10343203;28;20105;-59
2023/05/06 22:37:12;;;;;;;1.55;0.50;;;;;;;19.62;53.28;100278.41;10342049;28;20037;-62
2023/05/06 22:42:14;;;;;;;1.35;0.70;;;;;;;19.52;53.45;100278.16;10348171;28;20061;-61
2023/05/06 22:47:15;;;;;;;1.20;0.70;;;;;;;19.49;53.53;100275.09;10348178;28;20042;-60
2023/05/06 22:52:18;;;;;;;4.88;0.90;;;;;;;19.50;53.58;100271.31;10344397;28;20054;-60
2023/05/06 22:57:21;;;;;;;2.00;0.73;;;;;;;19.47;53.52;100277.22;10343326;28;20497;-61
2023/05/06 23:02:23;;;;;;;1.92;0.80;;;;;;;19.26;54.34;100271.28;10345355;28;20053;-63
2023/05/06 23:07:24;;;;;;;3.45;0.60;;;;;;;19.15;54.26;100272.91;10345130;28;20050;-62